Time;durP1;ratioP1;P1;durP2;ratioP2;P2;SDS_P1;SDS_P2;PMS_P1;PMS_P2;Temp;Humidity;BMP_temperature;BMP_pressure;BME280_temperature;BME280_humidity;BME280_pressure;Samples;Min_cycle;Max_cycle;Signal;HPM_P1;HPM_P2
2022/11/17 00:00:23;;;;;;;37.95;16.08;;;8.70;99.90;;;;;;5117927;27;20046;-76
2022/11/17 00:02:49;;;;;;;36.10;15.25;;;8.70;99.90;;;;;;5136329;27;20051;-75
2022/11/17 00:05:15;;;;;;;38.72;15.23;;;8.70;99.90;;;;;;5117369;27;20043;-75
2022/11/17 00:07:43;;;;;;;39.38;14.43;;;8.70;99.90;;;;;;5135494;27;20046;-75
2022/11/17 00:10:10;;;;;;;34.83;14.38;;;8.70;99.90;;;;;;5136236;27;20047;-75
2022/11/17 00:15:20;;;;;;;33.08;13.80;;;8.70;99.90;;;;;;5118651;27;20069;-77
2022/11/17 00:17:47;;;;;;;36.95;15.48;;;8.80;99.90;;;;;;5118238;27;20039;-75
2022/11/17 00:22:57;;;;;;;31.92;13.27;;;8.70;99.90;;;;;;5135452;27;20001;-71
2022/11/17 00:25:23;;;;;;;34.75;13.60;;;8.80;99.90;;;;;;5117210;27;20082;-73
2022/11/17 00:27:49;;;;;;;35.83;14.70;;;8.80;99.90;;;;;;5135400;27;20502;-71
2022/11/17 00:34:03;;;;;;;32.47;14.02;;;8.80;99.90;;;;;;5133987;27;20134;-72
2022/11/17 00:35:53;;;;;;;24.42;10.18;;;8.90;99.90;;;;;;5135132;27;20054;-77
2022/11/17 00:38:19;;;;;;;23.90;10.20;;;8.90;99.90;;;;;;5116918;27;20059;-74
2022/11/17 00:40:45;;;;;;;32.28;14.25;;;9.00;99.90;;;;;;5117547;27;20059;-70
2022/11/17 00:43:10;;;;;;;34.15;13.85;;;8.90;99.90;;;;;;5099502;27;20150;-75
2022/11/17 00:45:36;;;;;;;31.38;13.18;;;8.90;99.90;;;;;;5116219;27;20122;-80
2022/11/17 00:48:02;;;;;;;33.10;11.45;;;8.90;99.90;;;;;;5099613;27;20043;-76
2022/11/17 00:50:28;;;;;;;28.30;13.07;;;9.00;99.90;;;;;;5116399;27;20099;-78
2022/11/17 00:52:54;;;;;;;31.20;13.52;;;9.00;99.90;;;;;;5100001;27;20427;-76
2022/11/17 00:55:19;;;;;;;27.73;12.80;;;8.90;99.90;;;;;;5134290;27;20118;-74
2022/11/17 00:57:45;;;;;;;29.60;13.35;;;8.90;99.90;;;;;;5134655;27;20050;-75
2022/11/17 01:00:11;;;;;;;30.15;12.52;;;8.90;99.90;;;;;;5116577;27;20039;-73
2022/11/17 01:02:37;;;;;;;29.83;12.70;;;8.90;99.90;;;;;;5134246;27;20191;-72
2022/11/17 01:05:03;;;;;;;27.98;12.05;;;9.00;99.90;;;;;;5115979;27;20488;-72
2022/11/17 01:07:29;;;;;;;28.42;12.98;;;8.90;99.90;;;;;;5116256;28;20397;-73
2022/11/17 01:09:54;;;;;;;26.38;12.27;;;8.90;99.90;;;;;;5098895;27;20039;-73
2022/11/17 01:12:20;;;;;;;28.98;13.55;;;8.90;99.90;;;;;;5099088;28;20105;-73
2022/11/17 01:14:46;;;;;;;29.20;12.23;;;8.90;99.90;;;;;;5099038;27;20081;-74
2022/11/17 01:17:11;;;;;;;28.52;12.05;;;8.90;99.90;;;;;;5099003;27;20040;-75
2022/11/17 01:19:37;;;;;;;29.90;12.20;;;8.90;99.90;;;;;;5134697;27;20121;-72
2022/11/17 01:22:03;;;;;;;21.17;9.85;;;9.00;99.90;;;;;;5115567;28;20043;-75
2022/11/17 01:24:28;;;;;;;28.17;12.50;;;9.00;99.90;;;;;;5115287;27;20066;-77
2022/11/17 01:26:54;;;;;;;33.45;13.57;;;9.00;99.90;;;;;;5115858;27;20131;-73
2022/11/17 01:29:20;;;;;;;26.83;10.10;;;9.10;99.90;;;;;;5115458;28;20459;-73
2022/11/17 01:31:50;;;;;;;28.65;11.57;;;9.10;99.90;;;;;;5098717;28;20497;-74
2022/11/17 01:34:16;;;;;;;22.75;11.43;;;9.10;99.90;;;;;;5098729;28;20047;-74
2022/11/17 01:39:28;;;;;;;29.10;11.30;;;9.10;99.90;;;;;;5115841;28;20051;-76
2022/11/17 01:41:54;;;;;;;28.75;11.88;;;9.10;99.90;;;;;;5115348;28;20090;-75
2022/11/17 01:44:43;;;;;;;27.67;12.13;;;9.10;99.90;;;;;;5133259;28;20051;-75
2022/11/17 01:47:33;;;;;;;22.40;9.48;;;9.10;99.90;;;;;;5116015;28;20039;-75
2022/11/17 01:50:20;;;;;;;27.85;11.75;;;9.10;99.90;;;;;;5133897;28;20445;-75
2022/11/17 01:52:47;;;;;;;;;;;9.10;99.90;;;;;;5115449;28;20086;-81
2022/11/17 01:55:13;;;;;;;26.80;11.35;;;9.00;99.90;;;;;;5133976;28;20382;-75
2022/11/17 01:57:43;;;;;;;25.38;11.55;;;9.00;99.90;;;;;;5115322;28;20039;-77
2022/11/17 02:00:11;;;;;;;29.70;12.50;;;9.00;99.90;;;;;;5116140;28;20127;-75
2022/11/17 02:02:39;;;;;;;27.00;11.68;;;9.00;99.90;;;;;;5097992;28;20576;-78
2022/11/17 02:05:21;;;;;;;29.38;12.15;;;9.00;99.90;;;;;;5133398;28;20046;-76
2022/11/17 02:07:49;;;;;;;30.33;11.95;;;9.00;99.90;;;;;;5115903;28;20043;-80
2022/11/17 02:10:15;;;;;;;27.23;13.68;;;9.00;99.90;;;;;;5134613;28;20050;-77
2022/11/17 02:12:42;;;;;;;24.40;10.40;;;9.00;99.90;;;;;;5134154;28;20039;-77
2022/11/17 02:15:09;;;;;;;26.00;10.60;;;9.00;99.90;;;;;;5135077;28;20466;-78
2022/11/17 02:17:38;;;;;;;27.77;12.10;;;9.00;99.90;;;;;;5116521;28;20114;-78
2022/11/17 02:20:12;;;;;;;26.05;12.27;;;8.90;99.90;;;;;;5116615;28;20051;-80
2022/11/17 02:23:15;;;;;;;30.10;12.23;;;9.00;99.90;;;;;;5134300;28;20040;-77
2022/11/17 02:25:47;;;;;;;27.48;11.68;;;8.90;99.90;;;;;;5133620;28;20086;-77
2022/11/17 02:28:28;;;;;;;25.88;10.82;;;9.00;99.90;;;;;;5134302;28;20116;-78
2022/11/17 02:31:12;;;;;;;22.45;10.82;;;8.90;99.90;;;;;;5133721;28;20043;-74
2022/11/17 02:34:04;;;;;;;32.55;13.80;;;8.90;99.90;;;;;;5115089;28;20039;-76
2022/11/17 02:36:40;;;;;;;29.42;11.88;;;8.90;99.90;;;;;;5112657;27;20055;-74
2022/11/17 02:39:13;;;;;;;28.48;11.40;;;8.80;99.90;;;;;;5137376;27;20049;-76
2022/11/17 02:41:55;;;;;;;26.45;11.60;;;8.90;99.90;;;;;;5118863;27;20051;-76
2022/11/17 02:44:30;;;;;;;23.40;10.38;;;8.80;99.90;;;;;;5137558;27;20043;-83
2022/11/17 02:47:03;;;;;;;24.40;10.30;;;8.90;99.90;;;;;;5118431;27;20051;-78
2022/11/17 02:49:37;;;;;;;26.73;11.32;;;8.90;99.90;;;;;;5118993;27;20047;-76
2022/11/17 02:52:05;;;;;;;23.70;10.88;;;8.90;99.90;;;;;;5136836;27;20059;-81
2022/11/17 02:54:31;;;;;;;24.55;11.18;;;8.80;99.90;;;;;;5118541;27;20047;-76
2022/11/17 02:56:57;;;;;;;24.73;10.10;;;8.80;99.90;;;;;;5136744;27;20039;-76
2022/11/17 02:59:34;;;;;;;28.52;12.25;;;8.80;99.90;;;;;;5118499;27;20152;-74
2022/11/17 03:01:59;;;;;;;28.73;12.57;;;8.80;99.90;;;;;;5118390;27;20421;-76
2022/11/17 03:04:29;;;;;;;22.83;8.68;;;8.80;99.90;;;;;;5118219;27;20050;-76
2022/11/17 03:07:19;;;;;;;20.27;9.85;;;8.90;99.90;;;;;;5100953;27;20086;-75
2022/11/17 03:10:33;;;;;;;24.67;11.40;;;8.80;99.90;;;;;;5137238;27;20047;-75
2022/11/17 03:13:03;;;;;;;31.38;12.75;;;8.80;99.90;;;;;;5080087;27;20055;-77
2022/11/17 03:15:53;;;;;;;22.38;10.50;;;8.80;99.90;;;;;;5136355;27;20127;-73
2022/11/17 03:18:34;;;;;;;21.10;8.82;;;8.80;99.90;;;;;;5118601;27;20051;-75
2022/11/17 03:21:26;;;;;;;27.95;11.07;;;8.80;99.90;;;;;;5136110;27;20075;-73
2022/11/17 03:24:03;;;;;;;15.70;6.60;;;8.80;99.90;;;;;;5136283;27;20078;-76
2022/11/17 03:26:36;;;;;;;27.48;10.80;;;8.80;99.90;;;;;;5118766;27;20356;-72
2022/11/17 03:29:08;;;;;;;25.38;10.43;;;8.80;99.90;;;;;;5118441;27;20055;-76
2022/11/17 03:31:35;;;;;;;25.50;10.90;;;8.80;99.90;;;;;;5136284;27;20036;-80
2022/11/17 03:34:04;;;;;;;25.65;10.73;;;8.80;99.90;;;;;;5118229;27;20509;-77
2022/11/17 03:36:36;;;;;;;28.27;10.50;;;8.80;99.90;;;;;;5118493;27;20062;-76
2022/11/17 03:39:13;;;;;;;28.38;11.85;;;8.80;99.90;;;;;;5118401;27;20099;-78
2022/11/17 03:41:44;;;;;;;26.58;11.35;;;8.80;99.90;;;;;;5118169;27;20106;-75
2022/11/17 03:44:12;;;;;;;21.33;8.85;;;8.80;99.90;;;;;;5118220;27;20035;-77
2022/11/17 03:46:41;;;;;;;25.65;10.40;;;8.90;99.90;;;;;;5116516;27;20528;-76
2022/11/17 03:49:31;;;;;;;25.48;10.65;;;8.80;99.90;;;;;;5135900;27;20047;-74
2022/11/17 03:51:57;;;;;;;27.00;10.48;;;8.90;99.90;;;;;;5117526;27;20086;-77
2022/11/17 03:54:23;;;;;;;29.27;11.85;;;8.80;99.90;;;;;;5117699;27;20047;-75
2022/11/17 03:57:46;;;;;;;20.60;8.70;;;8.80;99.90;;;;;;5136059;27;20043;-74
2022/11/17 04:00:14;;;;;;;22.38;8.48;;;8.80;99.90;;;;;;5032566;28;20041;-74
2022/11/17 04:02:42;;;;;;;22.10;8.70;;;8.80;99.90;;;;;;5016777;28;20236;-76
2022/11/17 04:05:09;;;;;;;22.55;8.90;;;8.90;99.90;;;;;;5087411;27;20055;-75
2022/11/17 04:07:40;;;;;;;20.88;9.70;;;8.90;99.90;;;;;;5140415;27;20078;-73
2022/11/17 04:10:09;;;;;;;23.90;10.43;;;8.90;99.90;;;;;;5104009;27;20051;-70
2022/11/17 04:18:04;;;;;;;23.33;10.00;;;8.80;99.90;;;;;;5120903;27;20051;-72
2022/11/17 04:20:34;;;;;;;21.80;9.02;;;8.80;99.90;;;;;;5137652;27;20055;-74
2022/11/17 04:23:10;;;;;;;22.13;9.10;;;8.90;99.90;;;;;;5119216;27;20126;-75
2022/11/17 04:28:36;;;;;;;22.65;8.95;;;8.90;99.90;;;;;;5117795;27;20055;-73
2022/11/17 04:31:10;;;;;;;20.07;8.03;;;8.90;99.90;;;;;;5118850;27;20047;-72
2022/11/17 04:33:37;;;;;;;17.17;7.65;;;8.90;99.90;;;;;;5137852;27;20277;-73
2022/11/17 04:36:03;;;;;;;;;;;8.90;99.90;;;;;;5119003;27;20043;-75
2022/11/17 04:38:29;;;;;;;14.80;5.53;;;8.90;99.90;;;;;;5119665;27;19926;-72
2022/11/17 04:43:51;;;;;;;15.80;6.67;;;8.90;99.90;;;;;;5119276;27;20451;-73
2022/11/17 04:46:18;;;;;;;18.35;8.82;;;8.90;99.90;;;;;;5118275;27;20043;-72
2022/11/17 04:48:44;;;;;;;17.80;8.05;;;8.90;99.90;;;;;;5136187;27;20058;-74
2022/11/17 04:51:10;;;;;;;14.85;6.80;;;8.90;99.90;;;;;;5137553;27;20096;-73
2022/11/17 04:53:36;;;;;;;23.60;8.93;;;8.90;99.90;;;;;;5118125;27;20039;-75
2022/11/17 04:56:03;;;;;;;20.07;9.10;;;8.90;99.90;;;;;;5116884;27;20051;-78
2022/11/17 04:58:29;;;;;;;16.90;8.00;;;8.80;99.90;;;;;;5134754;27;20039;-76
2022/11/17 05:01:11;;;;;;;17.23;6.97;;;8.90;99.90;;;;;;5100162;27;20039;-75
2022/11/17 05:03:57;;;;;;;19.73;8.32;;;8.80;99.90;;;;;;5100163;27;20133;-74
2022/11/17 05:06:33;;;;;;;19.08;7.05;;;8.80;99.90;;;;;;5135082;27;20147;-73
2022/11/17 05:09:01;;;;;;;16.80;7.28;;;8.70;99.90;;;;;;5118312;27;20079;-73
2022/11/17 05:14:15;;;;;;;19.05;8.20;;;8.70;99.90;;;;;;5119537;27;20054;-76
2022/11/17 05:19:27;;;;;;;17.60;7.63;;;8.80;99.90;;;;;;5136147;27;20096;-74
2022/11/17 05:21:53;;;;;;;19.60;5.97;;;8.70;99.90;;;;;;5117798;28;20043;-76
2022/11/17 05:24:19;;;;;;;17.92;6.53;;;8.70;99.90;;;;;;5135724;27;20073;-74
2022/11/17 05:26:46;;;;;;;16.30;8.02;;;8.70;99.90;;;;;;5135436;27;20138;-76
2022/11/17 05:29:14;;;;;;;14.57;7.25;;;8.70;99.90;;;;;;5135072;27;20043;-76
2022/11/17 05:31:40;;;;;;;17.42;7.85;;;8.60;99.90;;;;;;5116177;27;20051;-75
2022/11/17 05:34:07;;;;;;;16.60;7.85;;;8.50;99.90;;;;;;5133183;27;20043;-76
2022/11/17 05:36:33;;;;;;;19.25;7.32;;;8.50;99.90;;;;;;5116218;28;20142;-76
2022/11/17 05:39:00;;;;;;;14.25;7.28;;;8.40;99.90;;;;;;5115922;28;20503;-77
2022/11/17 05:41:27;;;;;;;13.07;6.57;;;8.50;99.90;;;;;;5135134;28;20417;-76
2022/11/17 05:43:53;;;;;;;13.57;6.68;;;8.40;99.90;;;;;;5116414;28;20063;-74
2022/11/17 05:46:20;;;;;;;15.25;7.32;;;8.40;99.90;;;;;;5135085;28;20047;-75
2022/11/17 05:48:48;;;;;;;12.18;7.15;;;8.40;99.90;;;;;;5134664;28;20067;-76
2022/11/17 05:51:15;;;;;;;16.42;6.65;;;8.30;99.90;;;;;;5120022;28;20043;-76
2022/11/17 05:53:41;;;;;;;13.43;6.65;;;8.30;99.90;;;;;;5120427;28;20051;-77
2022/11/17 05:56:10;;;;;;;14.38;6.70;;;8.30;99.90;;;;;;5119832;28;20104;-77
2022/11/17 05:58:37;;;;;;;9.85;4.32;;;8.20;99.90;;;;;;5102968;28;20076;-77
2022/11/17 06:01:05;;;;;;;14.55;7.60;;;8.30;99.90;;;;;;5119392;28;20143;-79
2022/11/17 06:03:38;;;;;;;11.45;5.18;;;8.20;99.90;;;;;;5136766;28;20054;-77
2022/11/17 06:06:04;;;;;;;13.30;6.43;;;8.20;99.90;;;;;;5136804;28;20046;-78
2022/11/17 06:08:30;;;;;;;12.93;6.10;;;8.20;99.90;;;;;;5136997;28;20099;-77
2022/11/17 06:10:56;;;;;;;11.77;6.10;;;8.10;99.90;;;;;;5119897;27;20184;-76
2022/11/17 06:13:26;;;;;;;10.35;4.97;;;8.10;99.90;;;;;;5105088;27;20043;-76
2022/11/17 06:15:54;;;;;;;12.13;6.55;;;8.20;99.90;;;;;;5138453;27;20053;-79
2022/11/17 06:18:24;;;;;;;12.60;7.00;;;8.20;99.90;;;;;;5120379;27;20047;-77
2022/11/17 06:20:52;;;;;;;14.10;6.72;;;8.10;99.90;;;;;;5140021;27;20047;-80
2022/11/17 06:23:20;;;;;;;14.18;6.97;;;8.10;99.90;;;;;;5123024;27;20093;-76
2022/11/17 06:25:47;;;;;;;14.45;6.75;;;8.10;99.90;;;;;;5122790;27;20114;-78
2022/11/17 06:28:17;;;;;;;16.45;7.35;;;8.00;99.90;;;;;;5105797;27;20065;-83
2022/11/17 06:30:43;;;;;;;14.55;7.53;;;8.00;99.90;;;;;;5143552;27;20051;-78
2022/11/17 06:33:12;;;;;;;13.07;6.72;;;8.00;99.90;;;;;;5124826;27;20058;-81
2022/11/17 06:35:39;;;;;;;12.05;5.43;;;8.10;99.90;;;;;;5126575;27;20054;-79
2022/11/17 06:38:05;;;;;;;9.63;4.68;;;8.10;99.90;;;;;;5126397;27;20096;-78
2022/11/17 06:40:31;;;;;;;12.57;6.60;;;8.10;99.90;;;;;;5143178;27;20039;-79
2022/11/17 06:43:02;;;;;;;13.30;6.53;;;8.10;99.90;;;;;;5124963;27;20066;-77
2022/11/17 06:45:46;;;;;;;14.52;6.43;;;8.10;99.90;;;;;;5124149;27;20440;-78
2022/11/17 06:48:15;;;;;;;11.93;6.05;;;8.10;99.90;;;;;;5140247;27;20050;-74
2022/11/17 06:50:42;;;;;;;13.18;6.00;;;8.10;99.90;;;;;;5120048;27;20047;-74
2022/11/17 06:53:11;;;;;;;13.27;5.90;;;8.10;99.90;;;;;;5103250;27;20087;-78
2022/11/17 06:55:37;;;;;;;12.85;6.13;;;8.20;99.90;;;;;;5102313;27;20050;-76
2022/11/17 06:58:05;;;;;;;14.43;6.72;;;8.10;99.90;;;;;;5137581;27;20051;-75
2022/11/17 07:00:32;;;;;;;12.35;6.80;;;8.20;99.90;;;;;;5119281;27;20126;-77
2022/11/17 07:03:04;;;;;;;11.23;5.07;;;8.10;99.90;;;;;;5137275;27;20051;-76
2022/11/17 07:05:30;;;;;;;12.13;5.70;;;8.10;99.90;;;;;;5119559;27;20043;-76
2022/11/17 07:08:01;;;;;;;13.30;6.70;;;8.10;99.90;;;;;;5136598;27;20047;-76
2022/11/17 07:10:27;;;;;;;11.73;5.53;;;8.10;99.90;;;;;;5136660;27;20047;-76
2022/11/17 07:12:53;;;;;;;13.00;6.20;;;8.10;99.90;;;;;;5101387;27;20043;-75
2022/11/17 07:15:20;;;;;;;12.68;6.10;;;8.20;99.90;;;;;;5118958;27;20043;-77
2022/11/17 07:17:46;;;;;;;12.02;5.93;;;8.20;99.90;;;;;;5102132;27;20126;-75
2022/11/17 07:20:11;;;;;;;12.27;6.30;;;8.20;99.90;;;;;;5136814;27;20043;-76
2022/11/17 07:22:37;;;;;;;33.58;14.27;;;8.20;99.90;;;;;;5135387;27;20050;-75
2022/11/17 07:25:04;;;;;;;21.30;9.60;;;8.20;99.90;;;;;;5118255;27;20065;-74
2022/11/17 07:27:30;;;;;;;18.92;9.52;;;8.20;99.90;;;;;;5117324;27;20069;-75
2022/11/17 07:29:56;;;;;;;17.88;8.52;;;8.20;99.90;;;;;;5135033;27;20482;-75
2022/11/17 07:32:22;;;;;;;17.70;9.77;;;8.20;99.90;;;;;;5100986;27;20063;-75
2022/11/17 07:34:48;;;;;;;16.13;7.57;;;8.20;99.90;;;;;;5100690;27;20047;-77
2022/11/17 07:37:14;;;;;;;13.67;7.13;;;8.20;99.90;;;;;;5135896;27;20043;-77
2022/11/17 07:39:40;;;;;;;15.65;7.13;;;8.20;99.90;;;;;;5136035;27;20475;-77
2022/11/17 07:42:06;;;;;;;14.50;7.30;;;8.10;99.90;;;;;;5118164;27;20047;-78
2022/11/17 07:44:33;;;;;;;15.50;7.07;;;8.20;99.90;;;;;;5136469;27;20383;-79
2022/11/17 07:46:59;;;;;;;9.93;4.40;;;8.10;99.90;;;;;;5102274;27;20062;-80
2022/11/17 07:49:26;;;;;;;12.35;6.30;;;8.10;99.90;;;;;;5119106;27;20058;-79
2022/11/17 07:51:51;;;;;;;13.07;5.88;;;8.00;99.90;;;;;;5137323;27;20151;-80
2022/11/17 07:54:17;;;;;;;9.27;5.03;;;8.00;99.90;;;;;;5138036;27;20047;-81
2022/11/17 07:56:43;;;;;;;13.88;7.15;;;8.00;99.90;;;;;;5136135;27;20051;-81
2022/11/17 07:59:09;;;;;;;15.18;8.48;;;8.00;99.90;;;;;;5136864;27;20473;-77
2022/11/17 08:01:34;;;;;;;13.30;7.35;;;8.00;99.90;;;;;;5118245;27;20038;-79
2022/11/17 08:04:00;;;;;;;11.88;6.05;;;8.00;99.90;;;;;;5119406;27;20051;-80
2022/11/17 08:06:26;;;;;;;12.65;6.65;;;8.00;99.90;;;;;;5118635;27;20111;-83
2022/11/17 08:08:53;;;;;;;12.07;6.20;;;8.00;99.90;;;;;;5120999;27;20072;-79
2022/11/17 08:11:19;;;;;;;12.18;5.82;;;8.00;99.90;;;;;;5137805;27;20092;-80
2022/11/17 08:13:45;;;;;;;16.25;7.03;;;8.00;99.90;;;;;;5138141;27;20051;-77
2022/11/17 08:16:11;;;;;;;13.10;6.38;;;8.00;99.90;;;;;;5137608;27;20443;-78
2022/11/17 08:18:38;;;;;;;14.40;6.45;;;8.00;99.90;;;;;;5137315;27;20054;-78
2022/11/17 08:21:14;;;;;;;13.55;6.30;;;7.90;99.90;;;;;;5118118;27;20047;-78
2022/11/17 08:23:41;;;;;;;11.88;6.70;;;8.10;99.90;;;;;;5101413;27;20420;-78
2022/11/17 08:26:09;;;;;;;11.15;6.07;;;8.10;99.90;;;;;;5117051;27;20054;-81
2022/11/17 08:28:36;;;;;;;13.20;6.25;;;8.10;99.90;;;;;;5136093;27;20055;-78
2022/11/17 08:31:03;;;;;;;11.88;6.43;;;8.10;99.90;;;;;;5136397;27;20104;-78
2022/11/17 08:33:29;;;;;;;11.43;5.75;;;8.10;99.90;;;;;;5117606;27;20043;-78
2022/11/17 08:35:59;;;;;;;15.88;7.30;;;8.10;99.90;;;;;;5136024;27;20035;-80
2022/11/17 08:38:28;;;;;;;11.15;5.63;;;8.10;99.90;;;;;;5136395;27;20045;-78
2022/11/17 08:40:56;;;;;;;11.55;5.43;;;8.10;99.90;;;;;;5117478;27;20073;-77
2022/11/17 08:43:22;;;;;;;14.55;6.50;;;8.20;99.90;;;;;;5117166;27;20055;-78
2022/11/17 08:45:47;;;;;;;11.85;6.20;;;8.20;99.90;;;;;;5134566;27;20477;-77
2022/11/17 08:48:13;;;;;;;8.52;4.30;;;8.20;99.90;;;;;;5116912;27;20099;-76
2022/11/17 08:50:39;;;;;;;13.00;6.10;;;8.20;99.90;;;;;;5134853;27;20487;-77
2022/11/17 08:53:04;;;;;;;11.45;4.25;;;8.20;99.90;;;;;;5135436;27;20528;-81
2022/11/17 08:55:30;;;;;;;13.55;6.97;;;8.30;99.90;;;;;;5116428;27;20085;-79
2022/11/17 08:57:56;;;;;;;13.18;5.75;;;8.30;99.90;;;;;;5099353;27;20092;-76
2022/11/17 09:00:22;;;;;;;12.70;6.63;;;8.40;99.90;;;;;;5135474;27;20047;-76
2022/11/17 09:02:47;;;;;;;14.15;7.53;;;8.40;99.90;;;;;;5115720;27;20415;-75
2022/11/17 09:05:13;;;;;;;12.57;6.47;;;8.30;99.90;;;;;;5132938;27;20086;-75
2022/11/17 09:07:39;;;;;;;15.27;7.00;;;8.30;99.90;;;;;;5115850;27;20047;-80
2022/11/17 09:10:05;;;;;;;13.95;6.60;;;8.30;99.90;;;;;;5115736;27;20478;-78
2022/11/17 09:12:31;;;;;;;11.50;5.55;;;8.40;99.90;;;;;;5116761;27;20486;-82
2022/11/17 09:14:57;;;;;;;12.93;6.97;;;8.40;99.90;;;;;;5116806;27;20039;-79
2022/11/17 09:17:22;;;;;;;10.15;5.20;;;8.40;99.90;;;;;;5134988;27;20383;-77
2022/11/17 09:19:48;;;;;;;12.32;6.15;;;8.40;99.90;;;;;;5099025;27;20050;-77
2022/11/17 09:22:14;;;;;;;13.30;5.90;;;8.40;99.90;;;;;;5134086;27;20047;-81
2022/11/17 09:24:39;;;;;;;11.65;5.70;;;8.50;99.90;;;;;;5116070;27;20047;-79
2022/11/17 09:27:05;;;;;;;12.52;6.25;;;8.50;99.90;;;;;;5116155;27;20126;-82
2022/11/17 09:29:31;;;;;;;11.10;6.18;;;8.40;99.90;;;;;;5096822;28;20388;-76
2022/11/17 09:31:57;;;;;;;10.70;5.88;;;8.50;99.90;;;;;;5113240;28;20039;-79
2022/11/17 09:34:22;;;;;;;9.93;5.03;;;8.50;99.90;;;;;;5129866;27;20522;-77
2022/11/17 09:36:48;;;;;;;12.95;6.05;;;8.50;99.90;;;;;;5113478;28;20120;-77
2022/11/17 09:39:17;;;;;;;13.05;6.95;;;8.50;99.90;;;;;;5112256;28;20048;-77
2022/11/17 09:41:45;;;;;;;16.13;7.50;;;8.50;99.90;;;;;;5111635;28;20043;-78
2022/11/17 09:44:26;;;;;;;15.20;7.25;;;8.40;99.90;;;;;;5111505;28;20460;-77
2022/11/17 09:47:06;;;;;;;14.65;6.75;;;8.40;99.90;;;;;;5117291;28;20134;-78
2022/11/17 09:49:51;;;;;;;13.73;7.10;;;8.40;99.90;;;;;;5099205;28;20047;-79
2022/11/17 09:52:59;;;;;;;12.52;6.68;;;8.50;99.90;;;;;;5117672;28;20035;-78
2022/11/17 09:55:31;;;;;;;15.93;7.05;;;8.60;99.90;;;;;;5117377;28;20153;-78
2022/11/17 09:58:29;;;;;;;8.25;3.88;;;8.60;99.90;;;;;;5117479;28;20051;-79
2022/11/17 10:00:56;;;;;;;13.30;6.38;;;8.60;99.90;;;;;;5115984;28;20051;-79
2022/11/17 10:03:24;;;;;;;12.07;5.95;;;8.70;99.90;;;;;;5116073;28;20044;-78
2022/11/17 10:05:51;;;;;;;14.77;6.43;;;8.70;99.90;;;;;;5116949;28;20102;-77
2022/11/17 10:08:21;;;;;;;11.35;4.68;;;8.70;99.90;;;;;;5116876;28;20066;-75
2022/11/17 10:10:50;;;;;;;8.18;4.28;;;8.80;99.90;;;;;;5116846;27;20070;-76
2022/11/17 10:13:25;;;;;;;10.45;4.20;;;8.90;99.90;;;;;;5133354;27;20057;-80
2022/11/17 10:16:03;;;;;;;10.18;3.70;;;9.00;99.90;;;;;;5115878;28;20056;-78
2022/11/17 10:18:37;;;;;;;7.55;3.05;;;9.10;99.90;;;;;;5115696;28;20498;-77
2022/11/17 10:21:05;;;;;;;9.48;3.88;;;9.20;99.90;;;;;;5115619;28;20439;-77
2022/11/17 10:23:55;;;;;;;11.40;5.70;;;9.30;99.90;;;;;;5115885;28;20134;-77
2022/11/17 10:26:21;;;;;;;12.27;5.53;;;9.30;99.90;;;;;;5116171;28;20432;-75
2022/11/17 10:28:47;;;;;;;11.45;5.90;;;9.30;99.90;;;;;;5129394;27;20047;-78
2022/11/17 10:31:18;;;;;;;13.63;7.40;;;9.40;99.90;;;;;;5119089;27;20447;-76
2022/11/17 10:33:49;;;;;;;12.00;6.70;;;9.50;99.90;;;;;;5119042;27;20229;-77
2022/11/17 10:36:19;;;;;;;11.50;6.07;;;9.50;99.90;;;;;;5101338;27;20486;-75
2022/11/17 10:38:48;;;;;;;13.30;6.05;;;9.60;99.90;;;;;;5118478;27;20100;-75
2022/11/17 10:41:19;;;;;;;15.88;6.88;;;9.60;99.90;;;;;;5118340;27;20165;-77
2022/11/17 10:44:02;;;;;;;14.00;7.88;;;9.60;99.90;;;;;;5118343;27;20154;-76
2022/11/17 10:46:28;;;;;;;12.05;6.03;;;9.60;99.90;;;;;;5118449;27;20069;-77
2022/11/17 10:49:04;;;;;;;16.23;8.85;;;9.60;99.90;;;;;;5137621;27;20043;-77
2022/11/17 10:51:32;;;;;;;8.57;4.15;;;9.60;99.90;;;;;;5119217;27;20086;-77
2022/11/17 10:54:16;;;;;;;14.55;7.93;;;9.70;99.90;;;;;;5136747;27;20051;-78
2022/11/17 10:56:50;;;;;;;11.93;6.07;;;9.70;99.90;;;;;;5135921;27;20047;-77
2022/11/17 10:59:16;;;;;;;9.93;5.00;;;9.60;99.90;;;;;;5137240;27;20062;-75
2022/11/17 11:01:44;;;;;;;12.80;6.00;;;9.70;99.90;;;;;;5135989;27;20467;-76
2022/11/17 11:04:30;;;;;;;10.40;6.00;;;9.70;99.90;;;;;;5118183;27;20043;-79
2022/11/17 11:07:13;;;;;;;11.95;5.90;;;9.80;99.90;;;;;;5136226;27;20134;-79
2022/11/17 11:10:01;;;;;;;9.82;5.40;;;9.80;99.90;;;;;;5136914;27;20348;-79
2022/11/17 11:13:11;;;;;;;7.78;4.80;;;9.70;99.90;;;;;;5117751;27;20126;-78
2022/11/17 11:15:38;;;;;;;11.43;5.57;;;9.70;99.90;;;;;;5100838;27;20067;-77
2022/11/17 11:18:15;;;;;;;20.42;13.70;;;9.70;99.90;;;;;;5118289;27;20057;-77
2022/11/17 11:20:59;;;;;;;8.05;4.53;;;9.60;99.90;;;;;;5100542;27;20188;-78
2022/11/17 11:23:30;;;;;;;9.10;4.80;;;9.80;99.90;;;;;;5135886;27;20043;-77
2022/11/17 11:26:23;;;;;;;9.40;4.38;;;9.80;99.90;;;;;;5136471;27;20419;-77
2022/11/17 11:29:13;;;;;;;10.73;4.07;;;9.90;99.90;;;;;;5136305;27;20126;-77
2022/11/17 11:31:44;;;;;;;9.63;2.97;;;9.90;99.90;;;;;;5135802;27;20130;-77
2022/11/17 11:34:32;;;;;;;6.05;2.00;;;10.00;99.90;;;;;;5117683;27;20047;-78
2022/11/17 11:37:15;;;;;;;8.32;2.10;;;10.10;99.90;;;;;;5100427;27;20039;-80
2022/11/17 11:39:46;;;;;;;6.97;2.08;;;10.20;99.90;;;;;;5117135;27;20340;-78
2022/11/17 11:42:37;;;;;;;7.88;1.88;;;10.20;99.90;;;;;;5100864;27;20082;-78
2022/11/17 11:45:26;;;;;;;8.30;1.90;;;10.20;99.90;;;;;;5117436;27;20046;-78
2022/11/17 11:48:10;;;;;;;6.90;1.60;;;10.30;99.90;;;;;;5135495;27;20051;-77
2022/11/17 11:50:50;;;;;;;6.07;1.30;;;10.20;99.90;;;;;;5118236;27;20139;-80
2022/11/17 11:53:25;;;;;;;6.07;1.25;;;10.30;99.90;;;;;;5117014;27;20122;-78
2022/11/17 11:56:03;;;;;;;5.63;0.82;;;10.30;99.90;;;;;;5117321;27;20043;-77
2022/11/17 11:58:29;;;;;;;4.55;0.82;;;10.30;99.90;;;;;;5135761;27;20386;-76
2022/11/17 12:01:03;;;;;;;3.28;0.80;;;10.40;99.90;;;;;;5134976;27;20039;-75
2022/11/17 12:03:44;;;;;;;4.15;0.90;;;10.50;99.90;;;;;;5100560;27;20084;-75
2022/11/17 12:06:41;;;;;;;6.50;0.80;;;10.60;99.90;;;;;;5135843;27;20393;-75
2022/11/17 12:09:09;;;;;;;7.20;0.80;;;10.70;99.90;;;;;;5115609;27;20051;-75
2022/11/17 12:14:23;;;;;;;3.67;0.73;;;10.70;99.90;;;;;;5102399;27;20112;-77
2022/11/17 12:16:49;;;;;;;3.50;0.80;;;10.60;99.90;;;;;;5116389;27;20066;-77
2022/11/17 12:19:49;;;;;;;6.60;0.95;;;10.60;99.90;;;;;;5134715;27;20047;-77
2022/11/17 12:22:32;;;;;;;4.95;0.73;;;10.60;99.90;;;;;;5116907;27;20040;-78
2022/11/17 12:25:12;;;;;;;5.97;0.80;;;10.60;99.90;;;;;;5116162;27;20057;-76
2022/11/17 12:27:38;;;;;;;5.07;0.70;;;10.50;99.90;;;;;;5134714;27;20066;-77
2022/11/17 12:30:27;;;;;;;4.13;0.60;;;10.60;99.90;;;;;;5134699;27;20343;-77
2022/11/17 12:32:54;;;;;;;4.95;1.13;;;10.60;99.90;;;;;;5115798;27;20043;-76
2022/11/17 12:35:28;;;;;;;6.68;0.90;;;10.60;99.90;;;;;;5134548;27;20039;-76
2022/11/17 12:38:13;;;;;;;6.85;1.00;;;10.60;99.90;;;;;;5116405;27;20360;-75
2022/11/17 12:40:39;;;;;;;5.20;0.80;;;10.70;99.90;;;;;;5134328;27;20043;-76
2022/11/17 12:43:29;;;;;;;6.05;0.90;;;10.60;99.90;;;;;;5134731;27;20333;-76
2022/11/17 12:45:58;;;;;;;7.70;1.00;;;10.60;99.90;;;;;;5134443;27;20086;-77
2022/11/17 12:49:00;;;;;;;5.03;0.80;;;10.50;99.90;;;;;;5115824;27;20384;-75
2022/11/17 12:51:33;;;;;;;9.18;0.95;;;10.60;99.90;;;;;;5115251;27;20518;-75
2022/11/17 12:54:03;;;;;;;10.95;1.30;;;10.60;99.90;;;;;;5099289;27;20364;-76
2022/11/17 12:56:47;;;;;;;3.95;1.00;;;10.60;99.90;;;;;;5098971;27;20042;-75
2022/11/17 12:59:24;;;;;;;4.18;0.93;;;10.60;99.90;;;;;;5115620;27;20062;-77
2022/11/17 13:02:30;;;;;;;6.18;1.20;;;10.50;99.90;;;;;;5134670;27;20413;-76
2022/11/17 13:05:19;;;;;;;6.32;0.88;;;10.60;99.90;;;;;;5116052;27;20053;-77
2022/11/17 13:07:45;;;;;;;5.18;0.95;;;10.50;99.90;;;;;;5132813;27;20120;-76
2022/11/17 13:10:29;;;;;;;8.70;1.10;;;10.70;99.90;;;;;;5132588;27;20043;-76
2022/11/17 13:13:16;;;;;;;4.38;0.88;;;10.70;99.90;;;;;;5116117;27;20047;-77
2022/11/17 13:15:43;;;;;;;3.20;1.08;;;10.70;99.90;;;;;;5116540;27;20116;-75
2022/11/17 13:18:32;;;;;;;3.35;0.80;;;10.70;99.90;;;;;;5115685;27;20095;-76
2022/11/17 13:20:59;;;;;;;7.93;1.33;;;10.70;99.90;;;;;;5115781;27;20047;-75
2022/11/17 13:23:26;;;;;;;;;;;10.70;99.90;;;;;;5116043;27;20047;-74
2022/11/17 13:26:15;;;;;;;4.05;0.88;;;10.60;99.90;;;;;;5115387;27;19989;-75
2022/11/17 13:28:41;;;;;;;8.60;1.13;;;10.60;99.90;;;;;;5133601;27;20386;-76
2022/11/17 13:31:22;;;;;;;8.23;1.10;;;10.60;99.90;;;;;;5115975;27;20434;-76
2022/11/17 13:34:00;;;;;;;6.30;0.90;;;10.60;99.90;;;;;;5133725;27;20277;-74
2022/11/17 13:36:26;;;;;;;6.88;1.23;;;10.60;99.90;;;;;;5115031;28;20483;-74
2022/11/17 13:38:56;;;;;;;9.10;1.23;;;10.60;99.90;;;;;;5098382;28;20143;-76